• Join FlightAware (Why Join?)
  • Login
  • US Flag 
04:15AM EDT


 

Airport Tracker/Info


-or-


 

Live Flight TrackerFlight Track Log ✈ EJA122 ✈ 2013年07月 8日 ✈ KLWB - KPBI

Flight Track Log - Related Links

Times and Time Zones

All times are in EDT time to prevent confusion due to time zone crossing. See the EJA122 flight status page for this flight to view local times or setup timezone preferences in your user account.

Time Position Orientation Groundspeed Altitude Reporting Facility
EDT Latitude Longitude Course Direction KTS MPH feet Rate Location/Type
10:03AM 37.7442 -80.3717 179° South 443 510 40,000  Level Washington Center
10:04AM 37.7822 -80.4686 296° West 443 510 40,000  Level Washington Center
10:05AM 37.8211 -80.4292 39° Northeast 443 510 40,000 -16,320 Level Washington Center
10:06AM 37.7514 -80.4561 197° South 376 433 7,200 -14,880 Descending Washington Center
10:07AM 37.2075 -80.3795 179° South  Level Estimated
10:07AM 37.6750 -80.4853 197° South 327 376 10,000  Level Washington Center
10:08AM 37.5858 -80.5217 198° South 305 351 12,700 1,920 Climbing Washington Center
10:10AM 37.4256 -80.5844 197° South 333 383 15,600 1,500 Climbing Atlanta Center
10:11AM 37.3325 -80.6172 196° South 338 389 17,000 1,380 Climbing Atlanta Center
10:12AM 37.2317 -80.6581 198° South 343 395 18,400 1,320 Climbing Atlanta Center
10:13AM 37.1386 -80.6933 197° South 343 395 19,700 1,200 Climbing Atlanta Center
10:14AM 37.0414 -80.7208 193° South 350 403 20,800 1,260 Climbing Atlanta Center
10:15AM 36.9478 -80.7300 184° South 370 426 22,300 1,500 Climbing Atlanta Center
10:16AM 36.8461 -80.7394 184° South 375 432 23,800 1,560 Climbing Atlanta Center
10:17AM 36.7378 -80.7517 185° South 370 426 25,500 1,440 Climbing Atlanta Center
10:18AM 36.6339 -80.7611 184° South 362 417 26,700 1,080 Climbing Atlanta Center
10:19AM 36.5258 -80.7733 185° South 375 432 27,700 960 Climbing Atlanta Center
10:20AM 36.4197 -80.7853 185° South 386 444 28,700 900 Climbing Atlanta Center
10:21AM 36.3094 -80.7975 185° South 391 450 29,600 660 Climbing Atlanta Center
10:22AM 36.1972 -80.8097 185° South 404 465 30,100 420 Climbing Atlanta Center
10:23AM 36.0808 -80.8222 185° South 411 473 30,500 420 Climbing Atlanta Center
10:24AM 35.9581 -80.8347 185° South 426 490 31,000 420 Climbing Atlanta Center
10:25AM 35.8500 -80.8467 185° South 440 506 31,400 420 Climbing Atlanta Center
10:26AM 35.7269 -80.8567 184° South 445 512 31,900 600 Climbing Atlanta Center
10:27AM 35.6003 -80.8717 185° South 450 518 32,600 660 Climbing Atlanta Center
10:28AM 35.4669 -80.8869 185° South 450 518 33,300 660 Climbing Atlanta Center
10:29AM 35.3422 -80.8994 185° South 444 511 34,000 720 Climbing Atlanta Center
10:30AM 35.2236 -80.9142 186° South 438 504 34,800 840 Climbing Atlanta Center
10:31AM 35.1092 -80.9286 186° South 433 498 35,700 600 Climbing Atlanta Center
10:32AM 34.9906 -80.9406 185° South 428 493 36,000 180 Climbing Atlanta Center
10:33AM 34.8700 -80.9528 185° South 433 498 36,100 540 Climbing Atlanta Center
10:35AM 34.6083 -80.9806 185° South 441 507 37,800 660 Climbing Jacksonville Center
10:36AM 34.4939 -80.9931 185° South 434 499 38,300 540 Climbing Jacksonville Center
10:37AM 34.3814 -81.0006 183° South 413 475 38,900 480 Climbing Jacksonville Center
10:38AM 34.2753 -81.0131 186° South 393 452 39,300 360 Climbing Jacksonville Center
10:40AM 34.0132 -80.9788 174° South  Level Estimated
10:47AM 32.8165 -80.8250 174° South  Level Estimated
10:48AM 32.6455 -80.8034 174° South  Level Estimated
10:49AM 32.4745 -80.7819 174° South  Level Estimated
10:50AM 32.3036 -80.7604 174° South  Level Estimated
10:51AM 32.1326 -80.7390 174° South  Level Estimated
10:52AM 31.9616 -80.7177 174° South  Level Estimated
10:53AM 31.7906 -80.6965 174° South  Level Estimated
10:54AM 31.6196 -80.6754 174° South  Level Estimated
10:55AM 31.4486 -80.6543 174° South  Level Estimated
10:56AM 31.2776 -80.6333 174° South  Level Estimated
10:57AM 31.2173 -80.6259 174° South  Level Estimated
10:58AM 31.1569 -80.6185 174° South  Level Estimated
10:59AM 31.0965 -80.6112 174° South  Level Estimated
11:00AM 31.0362 -80.6038 174° South  Level Estimated
11:01AM 30.9758 -80.5965 174° South  Level Estimated
11:02AM 30.9154 -80.5891 174° South  Level Estimated
11:03AM 30.8551 -80.5818 174° South  Level Estimated
11:04AM 30.7947 -80.5744 174° South  Level Estimated
11:05AM 30.7343 -80.5671 174° South  Level Estimated
11:06AM 30.6740 -80.5598 174° South  Level Estimated
11:07AM 30.6136 -80.5525 174° South  Level Estimated
11:08AM 30.5532 -80.5452 174° South  Level Estimated
11:09AM 30.4928 -80.5379 174° South  Level Estimated
11:10AM 30.4325 -80.5307 174° South  Level Estimated
11:11AM 30.3721 -80.5234 174° South  Level Estimated
11:12AM 30.3117 -80.5162 174° South  Level Estimated
11:13AM 30.2514 -80.5089 174° South  Level Estimated
11:14AM 30.1910 -80.5017 174° South  Level Estimated
11:15AM 30.1306 -80.4945 174° South  Level Estimated
11:16AM 30.0702 -80.4872 174° South  Level Estimated
11:17AM 30.0099 -80.4800 174° South  Level Estimated
11:18AM 29.9495 -80.4728 174° South  Level Estimated
11:19AM 29.8891 -80.4656 174° South  Level Estimated
11:20AM 29.8288 -80.4585 174° South  Level Estimated
11:21AM 29.7684 -80.4513 174° South  Level Estimated
11:22AM 29.7080 -80.4441 174° South  Level Estimated
11:23AM 29.6477 -80.4370 174° South  Level Estimated
11:24AM 29.5873 -80.4298 174° South  Level Estimated
11:25AM 29.5269 -80.4227 174° South  Level Estimated
11:26AM 29.4665 -80.4155 174° South  Level Estimated
11:27AM 29.4061 -80.4084 174° South  Level Estimated
11:28AM 29.3458 -80.4013 174° South  Level Estimated
11:29AM 29.2854 -80.3942 174° South  Level Estimated
11:30AM 29.2250 -80.3871 174° South  Level Estimated
11:31AM 29.1646 -80.3800 174° South  Level Estimated
11:32AM 29.1042 -80.3729 174° South  Level Estimated
11:33AM 29.0439 -80.3659 174° South  Level Estimated
11:34AM 28.9835 -80.3588 174° South  Level Estimated
11:35AM 28.9231 -80.3517 174° South  Level Estimated
11:36AM 28.8627 -80.3447 174° South  Level Estimated
11:37AM 28.8023 -80.3376 174° South  Level Estimated
11:38AM 28.7420 -80.3306 174° South  Level Estimated
11:39AM 28.6816 -80.3236 174° South  Level Estimated
11:40AM 28.6212 -80.3166 174° South  Level Estimated
11:41AM 28.5608 -80.3096 174° South  Level Estimated
11:42AM 28.5004 -80.3026 174° South  Level Estimated
11:43AM 28.4401 -80.2956 174° South  Level Estimated
11:44AM 28.3797 -80.2886 174° South  Level Estimated
11:45AM 28.3193 -80.2816 174° South  Level Estimated
11:46AM 28.2589 -80.2747 174° South  Level Estimated
11:47AM 28.1985 -80.2677 174° South  Level Estimated
11:48AM 28.1382 -80.2608 174° South  Level Estimated
11:49AM 28.0778 -80.2538 174° South  Level Estimated
11:50AM 28.0174 -80.2469 174° South  Level Estimated
11:51AM 27.9570 -80.2400 174° South  Level Estimated
11:52AM 27.8966 -80.2330 174° South  Level Estimated
11:53AM 27.8362 -80.2261 174° South  Level Estimated
11:54AM 27.7759 -80.2192 174° South  Level Estimated
11:55AM 27.7155 -80.2123 174° South  Level Estimated
11:56AM 27.6551 -80.2054 174° South  Level Estimated
11:57AM 27.5947 -80.1985 174° South  Level Estimated
11:58AM 27.5343 -80.1917 174° South  Level Estimated
11:59AM 27.4739 -80.1848 174° South  Level Estimated
12:00PM 27.4135 -80.1779 174° South  Level Estimated
12:01PM 27.3531 -80.1711 174° South  Level Estimated
12:02PM 27.2927 -80.1643 174° South  Level Estimated
12:03PM 27.2323 -80.1574 174° South  Level Estimated
12:04PM 27.1719 -80.1506 174° South  Level Estimated
12:05PM 27.1116 -80.1438 174° South  Level Estimated
12:06PM 27.0512 -80.1369 174° South  Level Estimated
12:07PM 26.9908 -80.1301 174° South  Level Estimated
12:08PM 26.9304 -80.1233 174° South  Level Estimated
12:09PM 26.8700 -80.1165 174° South  Level Estimated
12:10PM 26.8096 -80.1098 174° South  Level Estimated
12:11PM 26.7492 -80.1030 174° South  Level Estimated
12:12PM 26.6888 -80.0962 174° South  Level Estimated
12:13PM 26.6832 -80.0956 174° South  Level Estimated
12:14PM 26.6832 -80.0956 222° Southwest  Level Estimated
12:15PM 26.6832 -80.0956 222° Southwest  Level Estimated
12:16PM 26.6832 -80.0956 222° Southwest  Level Estimated
12:17PM 26.6832 -80.0956 222° Southwest  Level Estimated
12:18PM 26.6832 -80.0956 222° Southwest  Level Estimated
12:19PM 26.6832 -80.0956 222° Southwest  Level Estimated
12:20PM 26.6832 -80.0956 222° Southwest  Level Estimated
12:21PM 26.6832 -80.0956 222° Southwest  Level Estimated
12:22PM 26.6832 -80.0956 222° Southwest  Level Estimated
12:23PM 26.6832 -80.0956 222° Southwest  Level Estimated
12:24PM 26.6832 -80.0956 222° Southwest  Level Estimated
12:25PM 26.6832 -80.0956 222° Southwest  Level Estimated
12:26PM 26.6832 -80.0956 222° Southwest  Level Estimated
12:27PM 26.6832 -80.0956 222° Southwest  Level Estimated
12:28PM 26.6832 -80.0956 222° Southwest  Level Estimated
12:29PM 26.6832 -80.0956 222° Southwest  Level Estimated
12:30PM 26.6832 -80.0956 222° Southwest  Level Estimated
12:31PM 26.6832 -80.0956 222° Southwest  Level Estimated
12:32PM 26.6832 -80.0956 222° Southwest  Level Estimated
12:33PM 26.6832 -80.0956 222° Southwest  Level Estimated
12:34PM 26.6832 -80.0956 222° Southwest  Level Estimated
12:35PM 26.6832 -80.0956 222° Southwest  Level Estimated
12:36PM 26.6832 -80.0956 222° Southwest  Level Estimated
12:37PM 26.6832 -80.0956 222° Southwest  Level Estimated
12:38PM 26.6832 -80.0956 222° Southwest  Level Estimated
12:39PM 26.6832 -80.0956 222° Southwest  Level Estimated
12:40PM 26.6832 -80.0956 222° Southwest  Level Estimated
12:41PM 26.6832 -80.0956 222° Southwest  Level Estimated
12:42PM 26.6832 -80.0956 222° Southwest  Level Estimated
12:43PM 26.6832 -80.0956 222° Southwest  Level Estimated
12:44PM 26.6832 -80.0956 222° Southwest  Level Estimated
12:45PM 26.6832 -80.0956 222° Southwest  Level Estimated
12:46PM 26.6832 -80.0956 222° Southwest  Level Estimated
12:47PM 26.6832 -80.0956 222° Southwest  Level Estimated
12:48PM 26.6832 -80.0956 222° Southwest  Level Estimated
12:49PM 26.6832 -80.0956 222° Southwest  Level Estimated
12:50PM 26.6832 -80.0956 222° Southwest  Level Estimated
12:51PM 26.6832 -80.0956 222° Southwest  Level Estimated
12:52PM 26.6832 -80.0956 222° Southwest  Level Estimated
12:53PM 26.6832 -80.0956 222° Southwest  Level Estimated
12:54PM 26.6832 -80.0956 222° Southwest  Level Estimated
12:55PM 26.6832 -80.0956 222° Southwest  Level Estimated
12:56PM 26.6832 -80.0956 222° Southwest  Level Estimated
12:57PM 26.6832 -80.0956 222° Southwest  Level Estimated
12:58PM 26.6832 -80.0956 222° Southwest  Level Estimated
12:59PM 26.6832 -80.0956 222° Southwest  Level Estimated
01:00PM 26.6832 -80.0956 222° Southwest  Level Estimated
01:01PM 26.6832 -80.0956 222° Southwest  Level Estimated
01:02PM 26.6832 -80.0956 222° Southwest  Level Estimated
01:03PM 26.6832 -80.0956 222° Southwest  Level Estimated
01:04PM 26.6832 -80.0956 222° Southwest  Level Estimated
01:05PM 26.6832 -80.0956 222° Southwest  Level Estimated
01:06PM 26.6832 -80.0956 222° Southwest  Level Estimated
01:07PM 26.6832 -80.0956 222° Southwest  Level Estimated
01:08PM 26.6832 -80.0956 222° Southwest  Level Estimated
01:09PM 26.6832 -80.0956 222° Southwest  Level Estimated
01:10PM 26.6832 -80.0956 222° Southwest  Level Estimated
01:11PM 26.6832 -80.0956 222° Southwest  Level Estimated
01:12PM 26.6832 -80.0956 222° Southwest  Level Estimated
01:13PM 26.6832 -80.0956 222° Southwest  Level Estimated
01:14PM 26.6832 -80.0956 222° Southwest  Level Estimated
01:15PM 26.6832 -80.0956 222° Southwest  Level Estimated
01:16PM 26.6832 -80.0956 222° Southwest  Level Estimated
01:17PM 26.6832 -80.0956 222° Southwest  Level Estimated